Stations in: Vaal Major (Blue row indicates station is a dam and capacity is shown in percentage)
Station Place Date/Time Stage (m) Flow/Cap Spill Comment
C1H006 Blesbok at Rietvley 2024-04-14 17:00 0.372 0.94
C1H007 Vaal at Bloukop 2024-04-14 16:00 0.679 8.38
C1H008 Watervals at Elandslaagte 2024-04-14 16:00 0.656 0.84
C1H012 Vaal at Gladdedrift 2024-04-14 17:00 0.676 6.00
C1H015 Klip at Delangesdrift 2024-04-14 17:00 1.637 14.94
C1H019 Outflow from Grootdraai Dam 2024-04-14 17:00 0.297 0.77
C1H044 Leeu Spruit at Welbedacht 2024-04-14 17:00 0.149 0.14
C1R001 Vaal at Vaal Dam 2024-04-14 17:00 19.026 62.27
C1R002 Vaal at Grootdraai Dam 2024-04-14 17:00 26.665 96.21 0.00
C2H004 Suikerbosrant at Uitvlugt 2024-04-14 17:00 1.180 17.77
C2H005 Riet Spruit at Kaalplaats 2024-04-14 16:00 0.450 3.39
C2H007 Vaal at Orkney 2024-04-14 17:00 0.537 63.02
C2H061 Vaal at Klipplaatdrift 2024-04-14 16:00 0.718 95.76
C2H071 Klip River @ Kookfontein 2024-04-14 17:00 0.886 19.50
C2H122 Outflow from Vaal Dam 2024-04-14 17:00 0.564 17.95
C2H140 Vaal at Woodlands 2024-04-14 17:00 0.667 61.83
C2H272 Vaal at Lethabo 2024-04-14 17:00 0.088 2.46
C3R001 Harts at Wentzel Dam
C3R002 Harts at Spitskop Dam 2024-04-14 05:00 5.451 65.09 0.00
C3R006 Harts at Taung Dam 2024-04-14 05:00 24.609 89.99 0.00
C4H004 Vet at Nooitgedacht 2024-04-14 08:00 1.604 28.75
C4H015 Vet at Vaalkoppies 2024-04-14 16:00 3.168 8.19
C4H016 Sand at Bloudrift 2024-04-14 17:00 0.292 1.99
C4R001 Sand at Allemanskraal Dam 2024-04-14 17:00 10.549 69.05 0.00
C4R002 Groot Vet at Erfenis Dam 2024-04-14 17:00 30.550 100.96 4.60
C6H002 Vals at Bothaville 2024-04-14 17:00 0.419 2.59
C6H006 Vals at Tweefontein 2024-04-14 17:00 1.350 0.00
C6H007 Vals at Kroonstadbrug 2024-04-14 17:00 2.715 0.00
C6H009 Vals at Lindley 2024-04-14 05:00 0.023
C7H019 Renoster at Verheugd 2024-04-14 17:00 0.051
C7R001 Renoster at Koppies Dam 2024-04-14 17:00 5.402 83.14 0.00
C8H001 Wilge at Frankfort 2024-04-14 17:00 0.646 42.94
C8H003 Cornelis at Warden 2024-04-14 16:00 0.039 0.22
C8H005 Elands at Elands River Drift 2024-04-14 17:00 0.217 2.69
C8H020 Liebenbergsvlei at Roodekraal 2024-04-14 05:00 0.592 24.64
C8H023 Meul River at The Willows 2024-04-14 17:00 0.205 4.72
C8H026 Liebenbergsvlei at Frederiksdal 2024-04-14 17:00 0.681 19.85
C8H027 Wilge at Ballingtomp 2024-04-14 08:00 1.183 35.10
C8H028 Wilge at Bavaria 2024-04-14 16:00 0.571
C8H036 Ash at outlet from Katse Dam 2024-04-14 13:00 0.765 12.84
C8H037 Liebenbergsvlei at Reward 2024-04-14 16:00 0.527 26.14
C8R003 Nuwejaarspr at Sterkfontein Dam 2024-04-14 16:00 82.001 100.00
C8R004 Liebenbergsvlei at Saulspoort Dam 2024-04-14 17:00 10.333 97.36 0.00
C9H010 Vaal River @ Gamagara 2024-04-14 05:00 1.829 2.59
C9H021 Outflow from Bloemhof Dam 2024-04-14 05:00 0.300 7.65
C9H024 Vaal at Schmidsdrift 2024-04-14 05:00 0.345 12.65
C9R001 Vaal at Vaalharts Weir 2024-04-14 05:00 7.045 89.39
C9R002 Vaal at Bloemhof Dam 2024-04-14 05:00 17.281 87.27
C9R003 Vaal at Douglas Weir 2024-04-14 17:00 3.060 110.37 18.96

Use your mouse cursor zoom and pan the images below.